Time,TemperatureF,DewpointF,PressureIn,WindDirection,WindDirectionDegrees,WindSpeedMPH,WindSpeedGustMPH,Humidity,HourlyPrecipIn,Conditions,Clouds,dailyrainin,SoftwareType,DateUTC
2013-06-18 00:00:00,69.1,64.4,29.87,SSW,192,0.0,6.0,85,0.00,,,0.00,meteohub,2013-06-18 05:00:00,
2013-06-18 00:05:00,68.9,64.2,29.87,SSW,192,0.0,6.0,85,0.00,,,0.00,meteohub,2013-06-18 05:05:00,
2013-06-18 00:10:00,69.6,64.6,29.87,SSW,192,0.0,5.0,84,0.00,,,0.00,meteohub,2013-06-18 05:10:00,
2013-06-18 00:15:00,70.0,63.9,29.86,SSW,197,0.0,6.0,81,0.00,,,0.00,meteohub,2013-06-18 05:15:00,
2013-06-18 00:20:00,70.3,63.9,29.86,SSW,197,0.0,6.0,80,0.00,,,0.00,meteohub,2013-06-18 05:20:00,
2013-06-18 00:26:00,70.5,64.0,29.87,SSW,197,0.0,6.0,80,0.00,,,0.00,meteohub,2013-06-18 05:26:00,
2013-06-18 00:31:00,70.7,64.2,29.87,SSW,197,0.0,0.0,80,0.00,,,0.00,meteohub,2013-06-18 05:31:00,
2013-06-18 00:36:00,70.5,64.4,29.87,SSW,197,0.0,0.0,81,0.00,,,0.00,meteohub,2013-06-18 05:36:00,
2013-06-18 00:41:00,70.3,64.2,29.87,SSW,197,0.0,0.0,81,0.00,,,0.00,meteohub,2013-06-18 05:41:00,
2013-06-18 00:46:00,70.3,64.9,29.87,SSW,197,0.0,5.0,83,0.00,,,0.00,meteohub,2013-06-18 05:46:00,
2013-06-18 00:51:00,70.2,65.1,29.87,SSW,197,0.0,5.0,84,0.00,,,0.00,meteohub,2013-06-18 05:51:00,
2013-06-18 00:56:00,69.6,64.9,29.87,SSW,197,0.0,5.0,85,0.00,,,0.00,meteohub,2013-06-18 05:56:00,
2013-06-18 01:01:00,69.4,65.1,29.87,SSW,197,0.0,0.0,86,0.00,,,0.00,meteohub,2013-06-18 06:01:00,
2013-06-18 01:06:00,69.1,64.8,29.87,SSW,197,0.0,0.0,86,0.00,,,0.00,meteohub,2013-06-18 06:06:00,
2013-06-18 01:11:00,68.9,64.9,29.87,SSW,197,0.0,0.0,87,0.00,,,0.00,meteohub,2013-06-18 06:11:00,
2013-06-18 01:16:00,68.7,64.8,29.87,SSW,197,0.0,0.0,87,0.00,,,0.00,meteohub,2013-06-18 06:16:00,
2013-06-18 01:21:00,68.5,64.6,29.87,SSW,197,0.0,0.0,87,0.00,,,0.00,meteohub,2013-06-18 06:21:00,
2013-06-18 01:26:00,68.2,64.4,29.87,SSW,197,0.0,0.0,88,0.00,,,0.00,meteohub,2013-06-18 06:26:00,
2013-06-18 01:31:00,68.0,64.6,29.87,SSW,197,0.0,0.0,89,0.00,,,0.00,meteohub,2013-06-18 06:31:00,
2013-06-18 01:36:00,67.8,64.4,29.87,SSW,197,0.0,0.0,89,0.00,,,0.00,meteohub,2013-06-18 06:36:00,
2013-06-18 01:41:00,67.8,64.8,29.87,SSW,197,0.0,0.0,90,0.00,,,0.00,meteohub,2013-06-18 06:41:00,
2013-06-18 01:46:00,67.6,64.6,29.87,SSW,197,0.0,0.0,90,0.00,,,0.00,meteohub,2013-06-18 06:46:00,
2013-06-18 01:51:00,67.3,64.2,29.88,SSW,197,0.0,0.0,90,0.00,,,0.00,meteohub,2013-06-18 06:51:00,
2013-06-18 01:56:00,66.9,64.2,29.88,SSW,197,0.0,0.0,91,0.00,,,0.00,meteohub,2013-06-18 06:56:00,
2013-06-18 02:01:00,66.9,64.6,29.88,SSW,197,0.0,0.0,92,0.00,,,0.00,meteohub,2013-06-18 07:01:00,
2013-06-18 02:06:00,66.9,64.6,29.88,SSW,197,0.0,0.0,92,0.00,,,0.00,meteohub,2013-06-18 07:06:00,
2013-06-18 02:11:00,66.9,64.6,29.88,SSW,197,0.0,0.0,92,0.00,,,0.00,meteohub,2013-06-18 07:11:00,
2013-06-18 02:17:00,66.9,64.8,29.87,SSW,197,0.0,0.0,93,0.00,,,0.00,meteohub,2013-06-18 07:17:00,
2013-06-18 02:22:00,66.7,64.4,29.87,SSW,197,0.0,0.0,92,0.00,,,0.00,meteohub,2013-06-18 07:22:00,
2013-06-18 02:27:00,66.4,64.2,29.87,SSW,197,0.0,0.0,93,0.00,,,0.00,meteohub,2013-06-18 07:27:00,
2013-06-18 02:32:00,66.6,64.4,29.87,SSW,197,0.0,0.0,93,0.00,,,0.00,meteohub,2013-06-18 07:32:00,
2013-06-18 02:37:00,66.4,64.2,29.87,SSW,197,0.0,0.0,93,0.00,,,0.00,meteohub,2013-06-18 07:37:00,
2013-06-18 02:42:00,66.4,64.2,29.88,SSW,197,0.0,0.0,93,0.00,,,0.00,meteohub,2013-06-18 07:42:00,
2013-06-18 02:47:00,66.4,64.2,29.88,SSW,197,0.0,0.0,93,0.00,,,0.00,meteohub,2013-06-18 07:47:00,
2013-06-18 02:52:00,66.0,63.9,29.88,SSW,197,0.0,0.0,93,0.00,,,0.00,meteohub,2013-06-18 07:52:00,
2013-06-18 02:57:00,65.8,63.7,29.88,SSW,197,0.0,0.0,93,0.00,,,0.00,meteohub,2013-06-18 07:57:00,
2013-06-18 03:02:00,65.8,64.0,29.88,SSW,197,0.0,0.0,94,0.00,,,0.00,meteohub,2013-06-18 08:02:00,
2013-06-18 03:07:00,65.8,64.0,29.88,SSW,197,0.0,0.0,94,0.00,,,0.00,meteohub,2013-06-18 08:07:00,
2013-06-18 03:12:00,65.7,63.9,29.88,SSW,197,0.0,0.0,94,0.00,,,0.00,meteohub,2013-06-18 08:12:00,
2013-06-18 03:17:00,65.7,63.9,29.88,SSW,197,0.0,0.0,94,0.00,,,0.00,meteohub,2013-06-18 08:17:00,
2013-06-18 03:22:00,65.7,63.9,29.88,SSW,197,0.0,0.0,94,0.00,,,0.00,meteohub,2013-06-18 08:22:00,
2013-06-18 03:27:00,65.5,63.7,29.88,SSW,197,0.0,0.0,94,0.00,,,0.00,meteohub,2013-06-18 08:27:00,
2013-06-18 03:32:00,65.5,63.7,29.87,SSW,197,0.0,0.0,94,0.00,,,0.00,meteohub,2013-06-18 08:32:00,
2013-06-18 03:37:00,65.7,63.9,29.87,SSW,197,0.0,0.0,94,0.00,,,0.00,meteohub,2013-06-18 08:37:00,
2013-06-18 03:42:00,65.1,63.3,29.87,SSW,197,0.0,0.0,94,0.00,,,0.00,meteohub,2013-06-18 08:42:00,
2013-06-18 03:47:00,65.1,63.3,29.87,SSW,197,0.0,0.0,94,0.00,,,0.00,meteohub,2013-06-18 08:47:00,
2013-06-18 03:52:00,64.9,63.5,29.87,SSW,197,0.0,0.0,95,0.00,,,0.00,meteohub,2013-06-18 08:52:00,
2013-06-18 03:57:00,64.9,63.5,29.87,SSW,197,0.0,0.0,95,0.00,,,0.00,meteohub,2013-06-18 08:57:00,
2013-06-18 04:02:00,65.1,63.7,29.87,SSW,197,0.0,0.0,95,0.00,,,0.00,meteohub,2013-06-18 09:02:00,
2013-06-18 04:07:00,65.3,63.9,29.87,SSW,197,0.0,0.0,95,0.00,,,0.00,meteohub,2013-06-18 09:07:00,
2013-06-18 04:12:00,65.5,64.0,29.87,SSW,197,0.0,0.0,95,0.00,,,0.00,meteohub,2013-06-18 09:12:00,
2013-06-18 04:17:00,65.5,64.0,29.87,SSW,197,0.0,0.0,95,0.00,,,0.00,meteohub,2013-06-18 09:17:00,
2013-06-18 04:22:00,65.5,64.0,29.88,SSW,197,0.0,0.0,95,0.00,,,0.00,meteohub,2013-06-18 09:22:00,
2013-06-18 04:27:00,65.1,63.7,29.88,SSW,197,0.0,0.0,95,0.00,,,0.00,meteohub,2013-06-18 09:27:00,
2013-06-18 04:32:00,65.3,63.9,29.88,SSW,197,0.0,0.0,95,0.00,,,0.00,meteohub,2013-06-18 09:32:00,
2013-06-18 04:37:00,64.9,63.5,29.88,SSW,197,0.0,0.0,95,0.00,,,0.00,meteohub,2013-06-18 09:37:00,
2013-06-18 04:42:00,64.8,63.3,29.88,SSW,197,0.0,0.0,95,0.00,,,0.00,meteohub,2013-06-18 09:42:00,
2013-06-18 04:47:00,64.9,63.5,29.89,SSW,197,0.0,0.0,95,0.00,,,0.00,meteohub,2013-06-18 09:47:00,
2013-06-18 04:52:00,64.9,63.5,29.89,SSW,197,0.0,0.0,95,0.00,,,0.00,meteohub,2013-06-18 09:52:00,
2013-06-18 04:57:00,64.9,63.5,29.89,SSW,197,0.0,0.0,95,0.00,,,0.00,meteohub,2013-06-18 09:57:00,
2013-06-18 05:02:00,64.8,63.3,29.89,SSW,197,0.0,0.0,95,0.00,,,0.00,meteohub,2013-06-18 10:02:00,
2013-06-18 05:07:00,64.6,63.1,29.88,SSW,197,0.0,0.0,95,0.00,,,0.00,meteohub,2013-06-18 10:07:00,
2013-06-18 05:12:00,64.8,63.3,29.89,SSE,163,0.0,0.0,95,0.00,,,0.00,meteohub,2013-06-18 10:12:00,
2013-06-18 05:17:00,64.8,63.3,29.89,SSE,163,0.0,0.0,95,0.00,,,0.00,meteohub,2013-06-18 10:17:00,
2013-06-18 05:22:00,64.6,63.1,29.89,SSE,163,0.0,0.0,95,0.00,,,0.00,meteohub,2013-06-18 10:22:00,
2013-06-18 05:27:00,64.8,63.3,29.90,SSE,163,0.0,0.0,95,0.00,,,0.00,meteohub,2013-06-18 10:27:00,
2013-06-18 05:32:00,64.9,63.5,29.90,SSE,163,0.0,5.0,95,0.00,,,0.00,meteohub,2013-06-18 10:32:00,
2013-06-18 05:37:00,64.9,63.5,29.90,SSE,163,0.0,5.0,95,0.00,,,0.00,meteohub,2013-06-18 10:37:00,
2013-06-18 05:42:00,65.1,63.7,29.91,SSE,163,0.0,0.0,95,0.00,,,0.00,meteohub,2013-06-18 10:42:00,
2013-06-18 05:47:00,65.1,64.0,29.91,SSE,163,0.0,0.0,96,0.00,,,0.00,meteohub,2013-06-18 10:47:00,
2013-06-18 05:52:00,65.1,64.0,29.91,SSE,163,0.0,0.0,96,0.00,,,0.00,meteohub,2013-06-18 10:52:00,
2013-06-18 05:57:00,65.5,64.2,29.91,SSE,163,0.0,0.0,96,0.00,,,0.00,meteohub,2013-06-18 10:57:00,
2013-06-18 06:02:00,65.7,64.4,29.91,SSE,163,0.0,0.0,96,0.00,,,0.00,meteohub,2013-06-18 11:02:00,
2013-06-18 06:07:00,65.7,64.4,29.91,SSE,163,0.0,0.0,96,0.00,,,0.00,meteohub,2013-06-18 11:07:00,
2013-06-18 06:12:00,65.7,64.4,29.92,SSE,163,0.0,0.0,96,0.00,,,0.00,meteohub,2013-06-18 11:12:00,
2013-06-18 06:17:00,65.5,64.0,29.92,SSE,163,0.0,0.0,95,0.00,,,0.00,meteohub,2013-06-18 11:17:00,
2013-06-18 06:22:00,65.3,63.9,29.92,SSE,163,0.0,0.0,95,0.00,,,0.00,meteohub,2013-06-18 11:22:00,
2013-06-18 06:27:00,65.1,63.7,29.92,SSE,163,0.0,0.0,95,0.00,,,0.00,meteohub,2013-06-18 11:27:00,
2013-06-18 06:32:00,65.1,63.3,29.92,SSE,163,0.0,0.0,94,0.00,,,0.00,meteohub,2013-06-18 11:32:00,
2013-06-18 06:37:00,65.1,63.0,29.92,SSE,163,0.0,0.0,93,0.00,,,0.00,meteohub,2013-06-18 11:37:00,
2013-06-18 06:42:00,65.1,63.0,29.92,SSE,163,0.0,0.0,93,0.00,,,0.00,meteohub,2013-06-18 11:42:00,
2013-06-18 06:47:00,65.3,63.0,29.93,SSE,163,0.0,0.0,92,0.00,,,0.00,meteohub,2013-06-18 11:47:00,
2013-06-18 06:52:00,65.3,63.0,29.93,SSE,163,0.0,0.0,92,0.00,,,0.00,meteohub,2013-06-18 11:52:00,
2013-06-18 06:57:00,65.3,63.0,29.93,SSE,163,0.0,0.0,92,0.00,,,0.00,meteohub,2013-06-18 11:57:00,
2013-06-18 07:02:00,65.5,63.1,29.93,SSE,163,0.0,0.0,92,0.00,,,0.00,meteohub,2013-06-18 12:02:00,
2013-06-18 07:07:00,65.5,62.8,29.93,SSE,163,0.0,0.0,91,0.00,,,0.00,meteohub,2013-06-18 12:07:00,
2013-06-18 07:12:00,65.7,62.6,29.93,SSE,163,0.0,0.0,90,0.00,,,0.00,meteohub,2013-06-18 12:12:00,
2013-06-18 07:17:00,65.8,62.8,29.93,SSE,163,0.0,0.0,90,0.00,,,0.00,meteohub,2013-06-18 12:17:00,
2013-06-18 07:22:00,66.0,63.0,29.93,SSE,163,0.0,0.0,90,0.00,,,0.00,meteohub,2013-06-18 12:22:00,
2013-06-18 07:27:00,66.2,62.8,29.93,SSE,163,0.0,0.0,89,0.00,,,0.00,meteohub,2013-06-18 12:27:00,
2013-06-18 07:32:00,66.4,62.8,29.93,SSE,163,0.0,0.0,88,0.00,,,0.00,meteohub,2013-06-18 12:32:00,
2013-06-18 07:37:00,66.4,62.4,29.92,SSE,163,0.0,5.0,87,0.00,,,0.00,meteohub,2013-06-18 12:37:00,
2013-06-18 07:42:00,66.2,61.9,29.92,SSE,163,0.0,5.0,86,0.00,,,0.00,meteohub,2013-06-18 12:42:00,
2013-06-18 07:47:00,66.4,62.1,29.92,SSE,163,0.0,5.0,86,0.00,,,0.00,meteohub,2013-06-18 12:47:00,
2013-06-18 07:52:00,66.7,62.1,29.92,SSE,163,0.0,5.0,85,0.00,,,0.00,meteohub,2013-06-18 12:52:00,
2013-06-18 07:57:00,66.9,62.2,29.92,SSE,163,0.0,5.0,85,0.00,,,0.00,meteohub,2013-06-18 12:57:00,
2013-06-18 08:02:00,66.9,61.9,29.92,SSE,163,0.0,5.0,84,0.00,,,0.00,meteohub,2013-06-18 13:02:00,
2013-06-18 08:07:00,67.1,62.1,29.92,SSE,158,0.0,5.0,84,0.00,,,0.00,meteohub,2013-06-18 13:07:00,
2013-06-18 08:12:00,67.3,62.2,29.92,SSE,158,0.0,5.0,84,0.00,,,0.00,meteohub,2013-06-18 13:12:00,
2013-06-18 08:17:00,67.6,61.9,29.92,SSE,158,0.0,5.0,82,0.00,,,0.00,meteohub,2013-06-18 13:17:00,
2013-06-18 08:22:00,67.8,62.1,29.92,SSE,158,0.0,0.0,82,0.00,,,0.00,meteohub,2013-06-18 13:22:00,
2013-06-18 08:27:00,68.2,62.4,29.92,SSE,158,0.0,5.0,82,0.00,,,0.00,meteohub,2013-06-18 13:27:00,
2013-06-18 08:32:00,68.5,62.8,29.92,SSE,158,0.0,5.0,82,0.00,,,0.00,meteohub,2013-06-18 13:32:00,
2013-06-18 08:37:00,68.7,62.6,29.92,SSE,158,0.0,5.0,81,0.00,,,0.00,meteohub,2013-06-18 13:37:00,
2013-06-18 08:42:00,69.1,63.0,29.92,SSE,158,0.0,0.0,81,0.00,,,0.00,meteohub,2013-06-18 13:42:00,
2013-06-18 08:47:00,69.3,62.8,29.92,SSE,158,0.0,0.0,80,0.00,,,0.00,meteohub,2013-06-18 13:47:00,
2013-06-18 08:52:00,69.6,63.1,29.92,SSE,158,0.0,0.0,80,0.00,,,0.00,meteohub,2013-06-18 13:52:00,
2013-06-18 08:57:00,69.6,62.4,29.92,SSE,158,0.0,5.0,78,0.00,,,0.00,meteohub,2013-06-18 13:57:00,
2013-06-18 09:02:00,69.8,63.0,29.93,SSE,158,0.0,5.0,79,0.00,,,0.00,meteohub,2013-06-18 14:02:00,
2013-06-18 09:07:00,70.0,63.1,29.92,SSE,158,0.0,5.0,79,0.00,,,0.00,meteohub,2013-06-18 14:07:00,
2013-06-18 09:12:00,70.3,63.1,29.92,SSE,158,0.0,5.0,78,0.00,,,0.00,meteohub,2013-06-18 14:12:00,
2013-06-18 09:17:00,70.3,62.8,29.93,SSE,158,0.0,5.0,77,0.00,,,0.00,meteohub,2013-06-18 14:17:00,
2013-06-18 09:22:00,70.7,63.5,29.92,SSE,158,0.0,5.0,78,0.00,,,0.00,meteohub,2013-06-18 14:22:00,
2013-06-18 09:27:00,71.1,63.9,29.92,SSE,158,0.0,5.0,78,0.00,,,0.00,meteohub,2013-06-18 14:27:00,
2013-06-18 09:32:00,71.2,63.7,29.92,SSE,157,0.0,5.0,77,0.00,,,0.00,meteohub,2013-06-18 14:32:00,
2013-06-18 09:37:00,71.2,64.0,29.92,SSE,153,0.0,5.0,78,0.00,,,0.00,meteohub,2013-06-18 14:37:00,
2013-06-18 09:42:00,71.2,63.7,29.92,SE,136,0.0,6.0,77,0.00,,,0.00,meteohub,2013-06-18 14:42:00,
2013-06-18 09:47:00,71.6,63.7,29.92,ESE,120,0.0,6.0,76,0.00,,,0.00,meteohub,2013-06-18 14:47:00,
2013-06-18 09:52:00,72.0,63.7,29.92,ESE,118,0.0,6.0,75,0.00,,,0.00,meteohub,2013-06-18 14:52:00,
2013-06-18 09:58:00,72.1,63.0,29.92,ESE,117,0.0,5.0,73,0.00,,,0.00,meteohub,2013-06-18 14:58:00,
2013-06-18 10:03:00,72.5,64.0,29.92,ESE,116,0.0,5.0,75,0.00,,,0.00,meteohub,2013-06-18 15:03:00,
2013-06-18 10:08:00,73.0,63.9,29.92,ESE,116,0.0,5.0,73,0.00,,,0.00,meteohub,2013-06-18 15:08:00,
2013-06-18 10:13:00,73.2,62.8,29.92,ESE,116,0.0,5.0,70,0.00,,,0.00,meteohub,2013-06-18 15:13:00,
2013-06-18 10:18:00,73.2,63.3,29.93,East,97,0.0,6.0,71,0.00,,,0.00,meteohub,2013-06-18 15:18:00,
2013-06-18 10:23:00,73.4,63.5,29.92,East,97,0.0,6.0,71,0.00,,,0.00,meteohub,2013-06-18 15:23:00,
2013-06-18 10:28:00,73.8,63.3,29.93,East,97,0.0,6.0,70,0.00,,,0.00,meteohub,2013-06-18 15:28:00,
2013-06-18 10:33:00,73.9,63.1,29.93,East,97,5.0,5.0,69,0.00,,,0.00,meteohub,2013-06-18 15:33:00,
2013-06-18 10:38:00,74.1,63.3,29.93,East,97,0.0,6.0,69,0.00,,,0.00,meteohub,2013-06-18 15:38:00,
2013-06-18 10:43:00,74.1,63.3,29.93,ESE,105,0.0,6.0,69,0.00,,,0.00,meteohub,2013-06-18 15:43:00,
2013-06-18 10:48:00,74.5,63.7,29.94,ESE,105,0.0,6.0,69,0.00,,,0.00,meteohub,2013-06-18 15:48:00,
2013-06-18 10:53:00,74.5,62.8,29.94,ESE,102,0.0,5.0,67,0.00,,,0.00,meteohub,2013-06-18 15:53:00,
2013-06-18 10:58:00,74.5,62.8,29.93,ESE,102,0.0,5.0,67,0.00,,,0.00,meteohub,2013-06-18 15:58:00,
2013-06-18 11:03:00,74.5,63.1,29.93,ESE,102,0.0,5.0,68,0.00,,,0.00,meteohub,2013-06-18 16:03:00,
2013-06-18 11:08:00,74.8,63.5,29.93,ESE,102,0.0,5.0,68,0.00,,,0.00,meteohub,2013-06-18 16:08:00,
2013-06-18 11:13:00,75.0,63.3,29.94,East,82,0.0,5.0,67,0.00,,,0.00,meteohub,2013-06-18 16:13:00,
2013-06-18 11:18:00,75.4,63.1,29.94,East,82,0.0,6.0,66,0.00,,,0.00,meteohub,2013-06-18 16:18:00,
2013-06-18 11:23:00,75.6,63.3,29.94,ESE,105,0.0,6.0,66,0.00,,,0.00,meteohub,2013-06-18 16:23:00,
2013-06-18 11:28:00,75.7,64.0,29.94,ESE,105,0.0,6.0,67,0.00,,,0.00,meteohub,2013-06-18 16:28:00,
2013-06-18 11:33:00,76.3,63.7,29.94,ESE,105,0.0,6.0,65,0.00,,,0.00,meteohub,2013-06-18 16:33:00,
2013-06-18 11:38:00,76.3,63.1,29.94,ESE,105,0.0,5.0,64,0.00,,,0.00,meteohub,2013-06-18 16:38:00,
2013-06-18 11:43:00,76.5,65.1,29.94,ESE,105,0.0,5.0,68,0.00,,,0.00,meteohub,2013-06-18 16:43:00,
2013-06-18 11:48:00,76.8,63.7,29.94,SSE,155,0.0,5.0,64,0.00,,,0.00,meteohub,2013-06-18 16:48:00,
2013-06-18 11:53:00,77.0,64.4,29.94,East,90,0.0,6.0,65,0.00,,,0.00,meteohub,2013-06-18 16:53:00,
2013-06-18 11:59:00,77.0,64.8,29.94,East,90,5.0,6.0,66,0.00,,,0.00,meteohub,2013-06-18 16:59:00,
2013-06-18 12:04:00,77.2,64.0,29.94,SSE,153,0.0,5.0,64,0.00,,,0.00,meteohub,2013-06-18 17:04:00,
2013-06-18 12:09:00,77.4,63.3,29.95,SSE,153,0.0,5.0,62,0.00,,,0.00,meteohub,2013-06-18 17:09:00,
2013-06-18 12:14:00,77.4,63.3,29.95,SSE,153,0.0,5.0,62,0.00,,,0.00,meteohub,2013-06-18 17:14:00,
2013-06-18 12:19:00,77.5,64.8,29.95,SSE,149,0.0,6.0,65,0.00,,,0.00,meteohub,2013-06-18 17:19:00,
2013-06-18 12:24:00,77.7,63.7,29.95,SSE,149,0.0,6.0,62,0.00,,,0.00,meteohub,2013-06-18 17:24:00,
2013-06-18 12:29:00,77.7,64.0,29.94,SSE,148,0.0,5.0,63,0.00,,,0.00,meteohub,2013-06-18 17:29:00,
2013-06-18 12:34:00,78.1,64.0,29.94,SSE,148,0.0,6.0,62,0.00,,,0.00,meteohub,2013-06-18 17:34:00,
2013-06-18 12:39:00,78.4,63.9,29.94,SSE,148,0.0,6.0,61,0.00,,,0.00,meteohub,2013-06-18 17:39:00,
2013-06-18 12:44:00,78.6,65.5,29.94,SSE,148,0.0,5.0,64,0.00,,,0.00,meteohub,2013-06-18 17:44:00,
2013-06-18 12:49:00,79.3,67.5,29.94,SSE,148,0.0,5.0,67,0.00,,,0.00,meteohub,2013-06-18 17:49:00,
2013-06-18 12:54:00,79.3,65.1,29.94,SSE,148,0.0,5.0,62,0.00,,,0.00,meteohub,2013-06-18 17:54:00,
2013-06-18 12:59:00,79.7,65.5,29.94,East,97,0.0,6.0,62,0.00,,,0.00,meteohub,2013-06-18 17:59:00,
2013-06-18 13:04:00,79.2,65.5,29.94,East,97,0.0,6.0,63,0.00,,,0.00,meteohub,2013-06-18 18:04:00,
2013-06-18 13:09:00,79.7,65.1,29.94,ENE,57,0.0,6.0,61,0.00,,,0.00,meteohub,2013-06-18 18:09:00,
2013-06-18 13:14:00,79.7,65.1,29.94,ENE,57,0.0,6.0,61,0.00,,,0.00,meteohub,2013-06-18 18:14:00,
2013-06-18 13:19:00,79.2,64.6,29.93,NNW,336,5.0,6.0,61,0.00,,,0.00,meteohub,2013-06-18 18:19:00,
2013-06-18 13:24:00,78.6,64.6,29.93,NNW,336,0.0,7.0,62,0.00,,,0.00,meteohub,2013-06-18 18:24:00,
2013-06-18 13:29:00,79.0,64.8,29.93,North,350,0.0,7.0,62,0.00,,,0.00,meteohub,2013-06-18 18:29:00,
2013-06-18 13:34:00,79.7,65.1,29.93,North,350,0.0,7.0,61,0.00,,,0.00,meteohub,2013-06-18 18:34:00,
2013-06-18 13:39:00,79.7,65.1,29.93,North,10,0.0,6.0,61,0.00,,,0.00,meteohub,2013-06-18 18:39:00,
2013-06-18 13:44:00,79.7,64.0,29.94,North,10,0.0,6.0,59,0.00,,,0.00,meteohub,2013-06-18 18:44:00,
2013-06-18 13:49:00,79.9,67.5,29.93,NE,45,0.0,5.0,66,0.00,,,0.00,meteohub,2013-06-18 18:49:00,
2013-06-18 13:54:00,79.9,66.2,29.94,NE,45,0.0,5.0,63,0.00,,,0.00,meteohub,2013-06-18 18:54:00,
2013-06-18 14:00:00,79.3,64.2,29.94,NE,45,0.0,5.0,60,0.00,,,0.00,meteohub,2013-06-18 19:00:00,
2013-06-18 14:05:00,79.3,65.7,29.93,ENE,60,0.0,5.0,63,0.00,,,0.00,meteohub,2013-06-18 19:05:00,
2013-06-18 14:10:00,79.7,66.4,29.93,ENE,60,0.0,5.0,64,0.00,,,0.00,meteohub,2013-06-18 19:10:00,
2013-06-18 14:15:00,79.5,64.4,29.93,NE,45,0.0,5.0,60,0.00,,,0.00,meteohub,2013-06-18 19:15:00,
2013-06-18 14:20:00,79.3,64.2,29.93,NE,45,0.0,6.0,60,0.00,,,0.00,meteohub,2013-06-18 19:20:00,
2013-06-18 14:25:00,79.2,63.7,29.93,NE,45,0.0,6.0,59,0.00,,,0.00,meteohub,2013-06-18 19:25:00,
2013-06-18 14:30:00,79.5,65.8,29.92,ENE,71,0.0,6.0,63,0.00,,,0.00,meteohub,2013-06-18 19:30:00,
2013-06-18 14:35:00,80.1,65.5,29.92,ENE,71,0.0,6.0,61,0.00,,,0.00,meteohub,2013-06-18 19:35:00,
2013-06-18 14:40:00,80.4,64.8,29.92,ENE,68,0.0,6.0,59,0.00,,,0.00,meteohub,2013-06-18 19:40:00,
2013-06-18 14:45:00,80.2,65.1,29.92,ESE,102,0.0,5.0,60,0.00,,,0.00,meteohub,2013-06-18 19:45:00,
2013-06-18 14:50:00,80.6,65.5,29.92,East,91,5.0,6.0,60,0.00,,,0.00,meteohub,2013-06-18 19:50:00,
2013-06-18 14:55:00,80.4,64.2,29.92,East,91,0.0,6.0,58,0.00,,,0.00,meteohub,2013-06-18 19:55:00,
2013-06-18 15:00:00,80.2,65.5,29.92,East,91,5.0,6.0,61,0.00,,,0.00,meteohub,2013-06-18 20:00:00,
2013-06-18 15:05:00,80.4,64.2,29.92,East,91,0.0,6.0,58,0.00,,,0.00,meteohub,2013-06-18 20:05:00,
2013-06-18 15:10:00,80.8,66.6,29.92,ENE,72,5.0,6.0,62,0.00,,,0.00,meteohub,2013-06-18 20:10:00,
2013-06-18 15:15:00,80.8,65.7,29.93,ENE,78,0.0,6.0,60,0.00,,,0.00,meteohub,2013-06-18 20:15:00,
2013-06-18 15:20:00,81.0,64.8,29.93,East,101,0.0,6.0,58,0.00,,,0.00,meteohub,2013-06-18 20:20:00,
2013-06-18 15:25:00,80.4,64.8,29.93,ESE,120,0.0,6.0,59,0.00,,,0.00,meteohub,2013-06-18 20:25:00,
2013-06-18 15:30:00,80.4,65.7,29.92,ESE,118,0.0,6.0,61,0.00,,,0.00,meteohub,2013-06-18 20:30:00,
2013-06-18 15:35:00,80.4,62.8,29.93,ESE,110,0.0,6.0,55,0.00,,,0.00,meteohub,2013-06-18 20:35:00,
2013-06-18 15:40:00,79.5,63.0,29.93,ESE,110,0.0,6.0,57,0.00,,,0.00,meteohub,2013-06-18 20:40:00,
2013-06-18 15:45:00,79.9,63.9,29.93,ESE,109,0.0,6.0,58,0.00,,,0.00,meteohub,2013-06-18 20:45:00,
2013-06-18 15:50:00,79.3,63.7,29.93,ESE,109,0.0,5.0,59,0.00,,,0.00,meteohub,2013-06-18 20:50:00,
2013-06-18 15:55:00,78.8,64.2,29.93,ESE,109,0.0,5.0,61,0.00,,,0.00,meteohub,2013-06-18 20:55:00,
2013-06-18 16:01:00,79.2,64.0,29.93,SSE,167,0.0,5.0,60,0.00,,,0.00,meteohub,2013-06-18 21:01:00,
2013-06-18 16:06:00,80.6,65.5,29.93,SE,141,0.0,6.0,60,0.00,,,0.00,meteohub,2013-06-18 21:06:00,
2013-06-18 16:11:00,80.2,63.7,29.93,ESE,118,0.0,6.0,57,0.00,,,0.00,meteohub,2013-06-18 21:11:00,
2013-06-18 16:16:00,80.2,64.0,29.93,ESE,118,0.0,6.0,58,0.00,,,0.00,meteohub,2013-06-18 21:16:00,
2013-06-18 16:21:00,79.3,63.7,29.93,ESE,118,0.0,6.0,59,0.00,,,0.00,meteohub,2013-06-18 21:21:00,
2013-06-18 16:26:00,79.3,64.2,29.93,East,84,5.0,6.0,60,0.00,,,0.00,meteohub,2013-06-18 21:26:00,
2013-06-18 16:31:00,79.5,64.4,29.93,East,100,0.0,6.0,60,0.00,,,0.00,meteohub,2013-06-18 21:31:00,
2013-06-18 16:36:00,79.3,63.3,29.93,East,100,0.0,6.0,58,0.00,,,0.00,meteohub,2013-06-18 21:36:00,
2013-06-18 16:41:00,79.5,63.9,29.93,East,100,5.0,6.0,59,0.00,,,0.00,meteohub,2013-06-18 21:41:00,
2013-06-18 16:46:00,79.0,63.0,29.93,ESE,111,0.0,6.0,58,0.00,,,0.00,meteohub,2013-06-18 21:46:00,
2013-06-18 16:51:00,78.3,63.7,29.92,West,265,5.0,6.0,61,0.00,,,0.00,meteohub,2013-06-18 21:51:00,
2013-06-18 16:56:00,78.4,62.4,29.93,ENE,76,0.0,7.0,58,0.00,,,0.00,meteohub,2013-06-18 21:56:00,
2013-06-18 17:01:00,77.9,62.4,29.93,ENE,78,0.0,8.0,59,0.00,,,0.00,meteohub,2013-06-18 22:01:00,
2013-06-18 17:06:00,77.5,62.6,29.93,ENE,78,0.0,8.0,60,0.00,,,0.00,meteohub,2013-06-18 22:06:00,
2013-06-18 17:11:00,78.1,62.1,29.93,ENE,78,0.0,8.0,58,0.00,,,0.00,meteohub,2013-06-18 22:11:00,
2013-06-18 17:16:00,78.1,62.1,29.93,ENE,72,0.0,6.0,58,0.00,,,0.00,meteohub,2013-06-18 22:16:00,
2013-06-18 17:21:00,78.1,61.5,29.93,ESE,118,0.0,5.0,57,0.00,,,0.00,meteohub,2013-06-18 22:21:00,
2013-06-18 17:26:00,77.9,61.9,29.93,East,83,5.0,8.0,58,0.00,,,0.00,meteohub,2013-06-18 22:26:00,
2013-06-18 17:31:00,77.7,61.3,29.92,SE,127,5.0,8.0,57,0.00,,,0.00,meteohub,2013-06-18 22:31:00,
2013-06-18 17:37:00,77.5,61.5,29.93,SE,126,0.0,8.0,58,0.00,,,0.00,meteohub,2013-06-18 22:37:00,
2013-06-18 17:42:00,77.7,61.7,29.93,SSE,153,0.0,6.0,58,0.00,,,0.00,meteohub,2013-06-18 22:42:00,
2013-06-18 17:47:00,77.4,60.4,29.93,East,80,0.0,6.0,56,0.00,,,0.00,meteohub,2013-06-18 22:47:00,
2013-06-18 17:52:00,77.2,61.3,29.93,ESE,102,0.0,6.0,58,0.00,,,0.00,meteohub,2013-06-18 22:52:00,
2013-06-18 17:57:00,77.2,60.8,29.93,ESE,120,0.0,6.0,57,0.00,,,0.00,meteohub,2013-06-18 22:57:00,
2013-06-18 18:02:00,77.2,60.3,29.93,ENE,68,0.0,8.0,56,0.00,,,0.00,meteohub,2013-06-18 23:02:00,
2013-06-18 18:07:00,77.4,60.4,29.93,East,84,0.0,8.0,56,0.00,,,0.00,meteohub,2013-06-18 23:07:00,
2013-06-18 18:12:00,77.2,60.8,29.93,East,83,0.0,8.0,57,0.00,,,0.00,meteohub,2013-06-18 23:12:00,
2013-06-18 18:17:00,77.2,61.7,29.93,East,82,0.0,6.0,59,0.00,,,0.00,meteohub,2013-06-18 23:17:00,
2013-06-18 18:22:00,76.8,61.3,29.93,ESE,107,0.0,6.0,59,0.00,,,0.00,meteohub,2013-06-18 23:22:00,
2013-06-18 18:27:00,76.6,61.2,29.93,East,95,0.0,6.0,59,0.00,,,0.00,meteohub,2013-06-18 23:27:00,
2013-06-18 18:32:00,76.5,61.5,29.93,ESE,111,5.0,6.0,60,0.00,,,0.00,meteohub,2013-06-18 23:32:00,
2013-06-18 18:37:00,75.9,61.0,29.94,ESE,111,0.0,6.0,60,0.00,,,0.00,meteohub,2013-06-18 23:37:00,
2013-06-18 18:42:00,75.7,60.8,29.94,ESE,118,0.0,6.0,60,0.00,,,0.00,meteohub,2013-06-18 23:42:00,
2013-06-18 18:47:00,75.6,60.3,29.94,ESE,118,0.0,6.0,59,0.00,,,0.00,meteohub,2013-06-18 23:47:00,
2013-06-18 18:52:00,75.6,60.6,29.94,ESE,107,0.0,6.0,60,0.00,,,0.00,meteohub,2013-06-18 23:52:00,
2013-06-18 18:57:00,75.6,60.6,29.94,ESE,107,0.0,6.0,60,0.00,,,0.00,meteohub,2013-06-18 23:57:00,
2013-06-18 19:02:00,75.4,61.0,29.94,ESE,107,0.0,6.0,61,0.00,,,0.00,meteohub,2013-06-19 00:02:00,
2013-06-18 19:07:00,75.4,61.0,29.94,SE,138,0.0,5.0,61,0.00,,,0.00,meteohub,2013-06-19 00:07:00,
2013-06-18 19:12:00,75.0,60.6,29.94,SE,136,0.0,6.0,61,0.00,,,0.00,meteohub,2013-06-19 00:12:00,
2013-06-18 19:17:00,75.0,60.6,29.94,ESE,110,0.0,6.0,61,0.00,,,0.00,meteohub,2013-06-19 00:17:00,
2013-06-18 19:22:00,74.8,60.4,29.94,SE,127,0.0,6.0,61,0.00,,,0.00,meteohub,2013-06-19 00:22:00,
2013-06-18 19:27:00,74.7,60.3,29.94,NE,54,0.0,6.0,61,0.00,,,0.00,meteohub,2013-06-19 00:27:00,
2013-06-18 19:32:00,74.5,60.6,29.94,SSE,161,5.0,8.0,62,0.00,,,0.00,meteohub,2013-06-19 00:32:00,
2013-06-18 19:37:00,74.1,60.3,29.95,SE,132,0.0,8.0,62,0.00,,,0.00,meteohub,2013-06-19 00:37:00,
2013-06-18 19:42:00,73.9,60.1,29.95,SE,132,0.0,8.0,62,0.00,,,0.00,meteohub,2013-06-19 00:42:00,
2013-06-18 19:47:00,73.8,59.9,29.95,SE,132,0.0,6.0,62,0.00,,,0.00,meteohub,2013-06-19 00:47:00,
2013-06-18 19:52:00,73.6,59.7,29.96,SE,132,0.0,6.0,62,0.00,,,0.00,meteohub,2013-06-19 00:52:00,
2013-06-18 19:57:00,73.2,59.9,29.96,SE,128,0.0,5.0,63,0.00,,,0.00,meteohub,2013-06-19 00:57:00,
2013-06-18 20:02:00,73.0,59.7,29.96,SE,128,0.0,5.0,63,0.00,,,0.00,meteohub,2013-06-19 01:02:00,
2013-06-18 20:07:00,72.9,59.5,29.96,SE,128,0.0,5.0,63,0.00,,,0.00,meteohub,2013-06-19 01:07:00,
2013-06-18 20:12:00,72.7,59.4,29.97,ESE,117,0.0,5.0,63,0.00,,,0.00,meteohub,2013-06-19 01:12:00,
2013-06-18 20:17:00,72.5,59.5,29.97,ESE,117,0.0,6.0,64,0.00,,,0.00,meteohub,2013-06-19 01:17:00,
2013-06-18 20:22:00,72.3,59.5,29.97,ESE,117,0.0,6.0,64,0.00,,,0.00,meteohub,2013-06-19 01:22:00,
2013-06-18 20:27:00,72.1,59.7,29.97,ESE,117,0.0,6.0,65,0.00,,,0.00,meteohub,2013-06-19 01:27:00,
2013-06-18 20:32:00,72.0,59.5,29.98,ESE,117,0.0,5.0,65,0.00,,,0.00,meteohub,2013-06-19 01:32:00,
2013-06-18 20:37:00,71.6,59.2,29.98,ESE,117,0.0,5.0,65,0.00,,,0.00,meteohub,2013-06-19 01:37:00,
2013-06-18 20:42:00,71.4,59.0,29.98,ESE,123,0.0,5.0,65,0.00,,,0.00,meteohub,2013-06-19 01:42:00,
2013-06-18 20:47:00,71.2,59.4,29.98,ESE,123,0.0,5.0,66,0.00,,,0.00,meteohub,2013-06-19 01:47:00,
2013-06-18 20:52:00,70.9,59.0,29.98,ESE,120,0.0,5.0,66,0.00,,,0.00,meteohub,2013-06-19 01:52:00,
2013-06-18 20:57:00,70.5,59.0,29.98,SE,127,0.0,6.0,67,0.00,,,0.00,meteohub,2013-06-19 01:57:00,
2013-06-18 21:02:00,70.3,58.8,29.98,SE,127,0.0,6.0,67,0.00,,,0.00,meteohub,2013-06-19 02:02:00,
2013-06-18 21:07:00,70.2,58.6,29.98,SE,127,0.0,5.0,67,0.00,,,0.00,meteohub,2013-06-19 02:07:00,
2013-06-18 21:12:00,70.0,59.0,29.98,SE,127,0.0,5.0,68,0.00,,,0.00,meteohub,2013-06-19 02:12:00,
2013-06-18 21:17:00,69.8,58.8,29.99,SE,127,0.0,5.0,68,0.00,,,0.00,meteohub,2013-06-19 02:17:00,
2013-06-18 21:22:00,69.6,59.0,29.99,SE,127,0.0,5.0,69,0.00,,,0.00,meteohub,2013-06-19 02:22:00,
2013-06-18 21:27:00,69.4,58.8,29.99,SE,127,0.0,5.0,69,0.00,,,0.00,meteohub,2013-06-19 02:27:00,
2013-06-18 21:32:00,69.3,58.6,29.99,SE,127,0.0,5.0,69,0.00,,,0.00,meteohub,2013-06-19 02:32:00,
2013-06-18 21:37:00,69.1,58.8,30.00,SE,127,0.0,5.0,70,0.00,,,0.00,meteohub,2013-06-19 02:37:00,
2013-06-18 21:42:00,68.9,58.6,29.99,SE,127,0.0,5.0,70,0.00,,,0.00,meteohub,2013-06-19 02:42:00,
2013-06-18 21:47:00,68.7,58.5,30.00,SE,127,0.0,5.0,70,0.00,,,0.00,meteohub,2013-06-19 02:47:00,
2013-06-18 21:52:00,68.5,58.3,30.00,SE,126,0.0,5.0,70,0.00,,,0.00,meteohub,2013-06-19 02:52:00,
2013-06-18 21:57:00,68.4,58.3,30.00,SE,128,0.0,5.0,70,0.00,,,0.00,meteohub,2013-06-19 02:57:00,
2013-06-18 22:02:00,68.2,58.5,30.00,SE,128,0.0,5.0,71,0.00,,,0.00,meteohub,2013-06-19 03:02:00,
2013-06-18 22:07:00,67.8,58.1,30.00,SE,128,0.0,5.0,71,0.00,,,0.00,meteohub,2013-06-19 03:07:00,
2013-06-18 22:12:00,67.6,57.9,30.00,SE,124,0.0,5.0,71,0.00,,,0.00,meteohub,2013-06-19 03:12:00,
2013-06-18 22:17:00,67.6,57.9,30.00,ESE,120,0.0,5.0,71,0.00,,,0.00,meteohub,2013-06-19 03:17:00,
2013-06-18 22:22:00,67.5,57.7,30.01,ESE,120,0.0,6.0,71,0.00,,,0.00,meteohub,2013-06-19 03:22:00,
2013-06-18 22:27:00,67.3,57.6,30.00,ESE,114,0.0,6.0,71,0.00,,,0.00,meteohub,2013-06-19 03:27:00,
2013-06-18 22:32:00,67.1,57.7,30.01,ESE,107,0.0,6.0,72,0.00,,,0.00,meteohub,2013-06-19 03:32:00,
2013-06-18 22:37:00,66.9,57.6,30.01,ESE,107,0.0,6.0,72,0.00,,,0.00,meteohub,2013-06-19 03:37:00,
2013-06-18 22:42:00,66.7,57.4,30.01,East,97,0.0,6.0,72,0.00,,,0.00,meteohub,2013-06-19 03:42:00,
2013-06-18 22:47:00,66.6,57.2,30.01,East,97,5.0,5.0,72,0.00,,,0.00,meteohub,2013-06-19 03:47:00,
2013-06-18 22:52:00,66.4,57.4,30.01,East,97,0.0,5.0,73,0.00,,,0.00,meteohub,2013-06-19 03:52:00,
2013-06-18 22:57:00,66.2,57.2,30.01,East,97,0.0,5.0,73,0.00,,,0.00,meteohub,2013-06-19 03:57:00,
2013-06-18 23:01:00,66.0,57.2,30.01,East,97,0.0,5.0,73,0.00,,,0.00,meteohub,2013-06-19 04:01:00,
2013-06-18 23:02:00,66.0,57.2,30.01,East,97,0.0,5.0,73,0.00,,,0.00,meteohub,2013-06-19 04:02:00,
2013-06-18 23:04:00,65.8,57.0,30.01,East,97,0.0,5.0,73,0.00,,,0.00,meteohub,2013-06-19 04:04:00,
2013-06-18 23:05:00,65.8,57.0,30.01,East,97,0.0,0.0,73,0.00,,,0.00,meteohub,2013-06-19 04:05:00,
2013-06-18 23:10:00,65.7,57.2,30.01,East,97,0.0,5.0,74,0.00,,,0.00,meteohub,2013-06-19 04:10:00,
2013-06-18 23:15:00,65.5,57.0,30.01,ESE,103,0.0,5.0,74,0.00,,,0.00,meteohub,2013-06-19 04:15:00,
2013-06-18 23:20:00,65.3,56.8,30.01,ESE,103,0.0,5.0,74,0.00,,,0.00,meteohub,2013-06-19 04:20:00,
2013-06-18 23:25:00,65.1,56.7,30.01,ESE,103,0.0,5.0,74,0.00,,,0.00,meteohub,2013-06-19 04:25:00,
2013-06-18 23:30:00,64.9,56.5,30.01,ESE,103,0.0,5.0,74,0.00,,,0.00,meteohub,2013-06-19 04:30:00,
2013-06-18 23:35:00,64.9,56.5,30.01,ESE,103,0.0,5.0,74,0.00,,,0.00,meteohub,2013-06-19 04:35:00,
2013-06-18 23:40:00,64.8,56.3,30.01,ESE,103,0.0,5.0,74,0.00,,,0.00,meteohub,2013-06-19 04:40:00,
2013-06-18 23:46:00,64.4,55.9,30.01,ESE,103,0.0,5.0,74,0.00,,,0.00,meteohub,2013-06-19 04:46:00,
2013-06-18 23:51:00,64.2,55.8,30.01,East,89,0.0,5.0,74,0.00,,,0.00,meteohub,2013-06-19 04:51:00,
2013-06-18 23:56:00,64.0,55.2,30.01,ENE,68,0.0,5.0,73,0.00,,,0.00,meteohub,2013-06-19 04:56:00,